Time;durP1;ratioP1;P1;durP2;ratioP2;P2;SDS_P1;SDS_P2;PMS_P1;PMS_P2;Temp;Humidity;BMP_temperature;BMP_pressure;BME280_temperature;BME280_humidity;BME280_pressure;Samples;Min_cycle;Max_cycle;Signal;HPM_P1;HPM_P2
2023/03/13 00:00:55;;;;;;;22.27;8.07;;;8.50;99.90;;;;;;4946122;28;90637;-31
2023/03/13 00:03:20;;;;;;;19.15;8.48;;;8.50;99.90;;;;;;4960179;28;89710;-29
2023/03/13 00:05:46;;;;;;;15.77;8.32;;;8.50;99.90;;;;;;4957636;28;90369;-29
2023/03/13 00:08:12;;;;;;;17.67;7.63;;;8.50;99.90;;;;;;4958230;28;89373;-29
2023/03/13 00:10:39;;;;;;;34.03;9.45;;;8.50;99.90;;;;;;4958229;28;90450;-30
2023/03/13 00:13:05;;;;;;;27.52;8.77;;;8.50;99.90;;;;;;4959405;28;90627;-31
2023/03/13 00:15:31;;;;;;;28.48;7.72;;;8.50;99.90;;;;;;4946512;28;89408;-32
2023/03/13 00:17:56;;;;;;;18.10;6.85;;;8.50;99.90;;;;;;4958792;28;89546;-32
2023/03/13 00:20:22;;;;;;;28.75;8.77;;;8.50;99.90;;;;;;4955970;28;90187;-31
2023/03/13 00:22:47;;;;;;;30.02;9.98;;;8.50;99.90;;;;;;4939572;28;89906;-29
2023/03/13 00:25:13;;;;;;;24.42;9.88;;;8.50;99.90;;;;;;4954532;28;90650;-30
2023/03/13 00:27:39;;;;;;;19.00;7.22;;;8.40;99.90;;;;;;4959459;28;87768;-29
2023/03/13 00:30:05;;;;;;;36.33;7.72;;;8.40;99.90;;;;;;4945471;28;90178;-29
2023/03/13 00:32:30;;;;;;;25.42;9.32;;;8.40;99.90;;;;;;4958223;28;89661;-30
2023/03/13 00:34:56;;;;;;;19.80;7.88;;;8.40;99.90;;;;;;4958159;28;89124;-28
2023/03/13 00:37:21;;;;;;;28.25;7.80;;;8.40;99.90;;;;;;4959251;28;88766;-29
2023/03/13 00:39:47;;;;;;;36.70;8.57;;;8.30;99.90;;;;;;4958231;28;90234;-29
2023/03/13 00:42:13;;;;;;;15.38;7.32;;;8.30;99.90;;;;;;4959106;28;90748;-30
2023/03/13 00:44:38;;;;;;;23.42;9.10;;;8.30;99.90;;;;;;4958714;28;90659;-29
2023/03/13 00:47:05;;;;;;;25.33;8.45;;;8.30;99.90;;;;;;4947219;28;88605;-30
2023/03/13 00:49:31;;;;;;;27.55;6.93;;;8.40;99.90;;;;;;4954106;28;89747;-32
2023/03/13 00:51:57;;;;;;;24.83;8.35;;;8.40;99.90;;;;;;4939394;28;88571;-30
2023/03/13 00:54:22;;;;;;;27.98;7.85;;;8.40;99.90;;;;;;4939147;28;90475;-32
2023/03/13 00:56:48;;;;;;;15.38;8.65;;;8.30;99.90;;;;;;4947824;28;88475;-30
2023/03/13 00:59:14;;;;;;;20.73;8.30;;;8.30;99.90;;;;;;4943666;28;90137;-30
2023/03/13 01:01:40;;;;;;;19.88;7.72;;;8.30;99.90;;;;;;4939290;28;89783;-31
2023/03/13 01:04:09;;;;;;;23.85;8.57;;;8.30;99.90;;;;;;4939294;28;89971;-32
2023/03/13 01:06:39;;;;;;;14.35;7.72;;;8.30;99.90;;;;;;4939138;28;89054;-30
2023/03/13 01:09:06;;;;;;;15.90;8.63;;;8.30;99.90;;;;;;4941082;28;90227;-31
2023/03/13 01:11:34;;;;;;;18.77;7.40;;;8.30;99.90;;;;;;4957856;28;92766;-29
2023/03/13 01:14:03;;;;;;;18.13;8.38;;;8.30;99.90;;;;;;4957842;28;89893;-31
2023/03/13 01:16:31;;;;;;;22.30;7.07;;;8.30;99.90;;;;;;4959386;28;89773;-29
2023/03/13 01:19:02;;;;;;;17.42;6.57;;;8.20;99.90;;;;;;4960884;28;89993;-33
2023/03/13 01:21:28;;;;;;;20.42;8.38;;;8.20;99.90;;;;;;4950012;28;89702;-29
2023/03/13 01:23:54;;;;;;;20.90;8.55;;;8.20;99.90;;;;;;4959750;28;89998;-31
2023/03/13 01:26:20;;;;;;;16.15;6.47;;;8.20;99.90;;;;;;4961603;28;87828;-30
2023/03/13 01:28:46;;;;;;;26.27;8.35;;;8.20;99.90;;;;;;4954219;28;90005;-31
2023/03/13 01:31:15;;;;;;;26.35;7.72;;;8.20;99.90;;;;;;4954153;28;89979;-33
2023/03/13 01:33:41;;;;;;;28.80;8.32;;;8.20;99.90;;;;;;4960992;28;89970;-30
2023/03/13 01:36:07;;;;;;;28.73;9.20;;;8.20;99.90;;;;;;4946994;28;87744;-30
2023/03/13 01:38:33;;;;;;;29.27;7.88;;;8.20;99.90;;;;;;4949048;28;91886;-31
2023/03/13 01:40:59;;;;;;;16.05;6.60;;;8.30;99.90;;;;;;4960270;28;89555;-30
2023/03/13 01:43:27;;;;;;;17.23;7.45;;;8.30;99.90;;;;;;4942645;28;89789;-30
2023/03/13 01:45:53;;;;;;;;;;;8.30;99.90;;;;;;4942960;28;90118;-29
2023/03/13 01:48:44;;;;;;;35.05;8.05;;;8.20;99.90;;;;;;4943441;28;90213;-28
2023/03/13 01:51:40;;;;;;;23.08;8.32;;;8.30;99.90;;;;;;4919909;28;90306;-30
2023/03/13 01:54:07;;;;;;;20.83;7.78;;;8.30;99.90;;;;;;4944891;28;89950;-28
2023/03/13 01:56:46;;;;;;;21.85;6.95;;;8.30;99.90;;;;;;4940632;28;90444;-33
2023/03/13 01:59:13;;;;;;;;;;;8.30;99.90;;;;;;4949350;28;90883;-31
2023/03/13 02:01:41;;;;;;;15.68;5.90;;;8.40;99.90;;;;;;4963191;28;90228;-29
2023/03/13 02:04:07;;;;;;;17.65;6.35;;;8.40;99.90;;;;;;4952891;28;89256;-30
2023/03/13 02:06:36;;;;;;;19.73;7.53;;;8.40;99.90;;;;;;4956338;28;89428;-32
2023/03/13 02:09:06;;;;;;;33.00;7.03;;;8.40;99.90;;;;;;4960111;28;90648;-30
2023/03/13 02:11:50;;;;;;;36.35;8.88;;;8.40;99.90;;;;;;4947520;28;90972;-30
2023/03/13 02:14:19;;;;;;;16.13;6.72;;;8.50;99.90;;;;;;4941881;28;89618;-28
2023/03/13 02:16:47;;;;;;;17.17;6.28;;;8.50;99.90;;;;;;4942313;28;89627;-28
2023/03/13 02:19:26;;;;;;;;;;;8.50;99.90;;;;;;4942011;28;90136;-31
2023/03/13 02:22:25;;;;;;;20.40;7.03;;;8.50;99.90;;;;;;4942248;28;90566;-28
2023/03/13 02:25:00;;;;;;;12.68;6.38;;;8.50;99.90;;;;;;4898904;28;90379;-30
2023/03/13 02:27:26;;;;;;;16.90;6.07;;;8.50;99.90;;;;;;4951405;28;88487;-32
2023/03/13 02:29:52;;;;;;;25.73;7.55;;;8.50;99.90;;;;;;4943782;28;90833;-32
2023/03/13 02:32:18;;;;;;;24.00;7.97;;;8.50;99.90;;;;;;4953866;28;89758;-33
2023/03/13 02:34:47;;;;;;;22.63;7.40;;;8.50;99.90;;;;;;4950625;28;89561;-29
2023/03/13 02:37:14;;;;;;;14.00;6.63;;;8.50;99.90;;;;;;4944413;28;89104;-33
2023/03/13 02:39:45;;;;;;;10.95;5.88;;;8.50;99.90;;;;;;4941862;28;90189;-34
2023/03/13 02:42:13;;;;;;;11.50;5.97;;;8.60;99.90;;;;;;4957244;28;90101;-31
2023/03/13 02:44:39;;;;;;;10.05;5.15;;;8.60;99.90;;;;;;4960522;28;89368;-29
2023/03/13 02:47:06;;;;;;;7.28;6.32;;;8.50;99.90;;;;;;4958514;28;88424;-30
2023/03/13 02:49:31;;;;;;;10.88;6.03;;;8.60;99.90;;;;;;4959974;28;89134;-32
2023/03/13 02:52:02;;;;;;;15.55;5.20;;;8.60;99.90;;;;;;4959097;28;89638;-31
2023/03/13 02:54:36;;;;;;;10.43;5.10;;;8.60;99.90;;;;;;4961081;28;89697;-30
2023/03/13 02:57:03;;;;;;;8.13;4.97;;;8.60;99.90;;;;;;4947233;28;88935;-31
2023/03/13 02:59:29;;;;;;;13.65;6.55;;;8.60;99.90;;;;;;4959926;28;89539;-33
2023/03/13 03:01:55;;;;;;;9.38;4.97;;;8.60;99.90;;;;;;4947847;28;89242;-31
2023/03/13 03:04:22;;;;;;;5.63;4.65;;;8.70;99.90;;;;;;4947320;28;89605;-32
2023/03/13 03:06:49;;;;;;;12.20;5.15;;;8.70;99.90;;;;;;4959510;28;90168;-31
2023/03/13 03:09:15;;;;;;;9.10;4.80;;;8.70;99.90;;;;;;4959014;28;90271;-29
2023/03/13 03:11:41;;;;;;;17.38;5.85;;;8.70;99.90;;;;;;4958007;28;90139;-32
2023/03/13 03:14:07;;;;;;;4.88;3.88;;;8.70;99.90;;;;;;4959596;28;90758;-33
2023/03/13 03:16:33;;;;;;;10.93;5.15;;;8.70;99.90;;;;;;4958125;28;88959;-32
2023/03/13 03:18:59;;;;;;;12.20;4.18;;;8.70;99.90;;;;;;4958439;28;89977;-31
2023/03/13 03:21:24;;;;;;;5.30;3.65;;;8.70;99.90;;;;;;4958787;28;89805;-32
2023/03/13 03:23:50;;;;;;;13.73;4.75;;;8.70;99.90;;;;;;4959089;28;89609;-29
2023/03/13 03:26:16;;;;;;;10.18;5.43;;;8.70;99.90;;;;;;4959477;28;87727;-32
2023/03/13 03:28:41;;;;;;;7.18;3.55;;;8.70;99.90;;;;;;4953413;28;90320;-32
2023/03/13 03:31:10;;;;;;;9.20;4.03;;;8.80;99.90;;;;;;4940486;28;90373;-30
2023/03/13 03:33:36;;;;;;;4.03;3.63;;;8.80;99.90;;;;;;4947942;28;89663;-31
2023/03/13 03:36:07;;;;;;;4.38;3.58;;;8.80;99.90;;;;;;4958754;28;90257;-32
2023/03/13 03:38:33;;;;;;;5.95;3.00;;;8.80;99.90;;;;;;4960267;28;90473;-30
2023/03/13 03:40:59;;;;;;;5.35;3.67;;;8.90;99.90;;;;;;4944304;28;89384;-28
2023/03/13 03:43:25;;;;;;;7.05;3.42;;;8.90;99.90;;;;;;4948134;28;89689;-31
2023/03/13 03:45:50;;;;;;;5.97;4.35;;;9.00;99.90;;;;;;4945291;28;89306;-29
2023/03/13 03:48:16;;;;;;;7.93;3.80;;;9.00;99.90;;;;;;4940018;28;90428;-33
2023/03/13 03:50:42;;;;;;;6.80;3.75;;;9.00;99.90;;;;;;4940287;28;90193;-31
2023/03/13 03:53:08;;;;;;;9.15;4.07;;;9.10;99.90;;;;;;4939760;28;89679;-30
2023/03/13 03:55:34;;;;;;;4.40;3.97;;;9.00;99.90;;;;;;4940213;28;88066;-30
2023/03/13 03:58:00;;;;;;;6.30;3.67;;;9.10;99.90;;;;;;4939581;28;90329;-29
2023/03/13 04:00:26;;;;;;;7.68;4.22;;;9.10;99.90;;;;;;4952365;28;90297;-32
2023/03/13 04:02:53;;;;;;;8.88;3.80;;;9.20;99.90;;;;;;4940211;28;89181;-29
2023/03/13 04:05:19;;;;;;;11.48;4.18;;;9.20;99.90;;;;;;4944287;28;89027;-31
2023/03/13 04:07:44;;;;;;;6.32;4.00;;;9.20;99.90;;;;;;4944845;28;90288;-31
2023/03/13 04:10:10;;;;;;;6.28;4.45;;;9.20;99.90;;;;;;4948447;28;91384;-30
2023/03/13 04:12:36;;;;;;;10.43;4.88;;;9.30;99.90;;;;;;4944906;28;89113;-33
2023/03/13 04:15:02;;;;;;;9.32;4.35;;;9.30;99.90;;;;;;4939904;28;88143;-29
2023/03/13 04:17:28;;;;;;;4.15;3.70;;;9.30;99.90;;;;;;4946125;28;90096;-28
2023/03/13 04:19:53;;;;;;;9.30;4.13;;;9.40;99.90;;;;;;4948758;28;89967;-30
2023/03/13 04:22:19;;;;;;;9.20;3.90;;;9.40;99.90;;;;;;4945713;28;89355;-31
2023/03/13 04:24:45;;;;;;;6.05;4.55;;;9.50;99.90;;;;;;4943744;28;89624;-32
2023/03/13 04:27:10;;;;;;;4.63;3.67;;;9.50;99.90;;;;;;4946809;28;91703;-30
2023/03/13 04:29:36;;;;;;;9.38;4.35;;;9.50;99.90;;;;;;4942847;28;90190;-30
2023/03/13 04:32:01;;;;;;;5.47;4.35;;;9.50;99.90;;;;;;4939351;28;89565;-31
2023/03/13 04:34:27;;;;;;;5.10;3.47;;;9.50;99.90;;;;;;4952292;28;89443;-32
2023/03/13 04:36:54;;;;;;;5.25;4.38;;;9.50;99.90;;;;;;4946748;28;90365;-32
2023/03/13 04:39:24;;;;;;;3.88;3.58;;;9.60;99.90;;;;;;4958104;28;89387;-31
2023/03/13 04:41:50;;;;;;;6.78;4.20;;;9.70;99.90;;;;;;4940010;28;90368;-28
2023/03/13 04:44:16;;;;;;;3.53;3.22;;;9.80;99.90;;;;;;4940870;28;88804;-32
2023/03/13 04:46:41;;;;;;;5.15;3.88;;;9.80;99.90;;;;;;4939401;28;90476;-33
2023/03/13 04:49:07;;;;;;;5.63;3.30;;;9.80;99.90;;;;;;4940653;28;90491;-33
2023/03/13 04:51:33;;;;;;;3.92;3.53;;;9.80;99.90;;;;;;4951733;28;90385;-32
2023/03/13 04:53:58;;;;;;;4.93;3.63;;;9.90;99.90;;;;;;4944017;28;88744;-30
2023/03/13 04:56:25;;;;;;;5.03;3.72;;;9.80;99.90;;;;;;4942862;28;90239;-31
2023/03/13 04:58:52;;;;;;;5.57;3.85;;;9.90;99.90;;;;;;4956191;28;89649;-32
2023/03/13 05:01:17;;;;;;;6.18;3.88;;;9.90;99.90;;;;;;4943656;28;89739;-32
2023/03/13 05:03:43;;;;;;;6.80;4.07;;;10.00;99.90;;;;;;4950762;28;90347;-33
2023/03/13 05:06:09;;;;;;;6.20;4.68;;;10.00;99.90;;;;;;4955923;28;90594;-32
2023/03/13 05:08:35;;;;;;;5.72;4.97;;;10.00;99.90;;;;;;4942577;28;89722;-31
2023/03/13 05:11:01;;;;;;;7.22;4.13;;;10.10;99.90;;;;;;4941651;28;89197;-32
2023/03/13 05:13:27;;;;;;;4.57;4.18;;;10.10;99.90;;;;;;4949528;28;89959;-32
2023/03/13 05:15:53;;;;;;;3.97;3.65;;;10.20;99.90;;;;;;4958788;28;90132;-32
2023/03/13 05:18:18;;;;;;;6.90;4.57;;;10.20;99.90;;;;;;4962275;28;89870;-31
2023/03/13 05:20:44;;;;;;;5.43;4.45;;;10.20;99.90;;;;;;4959498;28;89351;-32
2023/03/13 05:23:10;;;;;;;4.38;3.70;;;10.20;99.90;;;;;;4959789;28;88012;-29
2023/03/13 05:25:35;;;;;;;5.78;3.83;;;10.20;99.90;;;;;;4959242;28;91433;-32
2023/03/13 05:28:01;;;;;;;5.28;3.83;;;10.30;99.90;;;;;;4959474;28;89167;-31
2023/03/13 05:30:27;;;;;;;4.70;4.10;;;10.30;99.90;;;;;;4950354;28;89928;-33
2023/03/13 05:32:52;;;;;;;4.55;4.15;;;10.30;99.90;;;;;;4948336;28;87813;-30
2023/03/13 05:35:18;;;;;;;7.68;4.57;;;10.40;99.90;;;;;;4962012;28;90714;-30
2023/03/13 05:37:45;;;;;;;5.00;4.35;;;10.40;99.90;;;;;;4960405;28;90866;-30
2023/03/13 05:40:11;;;;;;;5.13;3.55;;;10.50;99.90;;;;;;4961512;28;90240;-31
2023/03/13 05:42:38;;;;;;;8.35;5.72;;;10.50;99.90;;;;;;4961525;28;88919;-29
2023/03/13 05:45:03;;;;;;;6.53;5.40;;;10.50;99.90;;;;;;4953256;28;90217;-32
2023/03/13 05:47:29;;;;;;;6.68;5.22;;;10.60;99.90;;;;;;4941984;28;90057;-34
2023/03/13 05:49:55;;;;;;;7.47;4.97;;;10.60;99.90;;;;;;4941615;28;89488;-32
2023/03/13 05:52:20;;;;;;;5.57;5.05;;;10.60;99.90;;;;;;4954799;28;90766;-34
2023/03/13 05:54:46;;;;;;;6.97;5.55;;;10.70;99.90;;;;;;4942380;28;89812;-29
2023/03/13 05:57:12;;;;;;;6.43;4.80;;;10.70;99.90;;;;;;4941431;28;89716;-28
2023/03/13 05:59:37;;;;;;;7.65;4.80;;;10.70;99.90;;;;;;4942310;28;89725;-30
2023/03/13 06:02:03;;;;;;;9.15;6.22;;;10.80;99.90;;;;;;4955166;28;90603;-28
2023/03/13 06:04:28;;;;;;;7.30;5.43;;;10.70;99.90;;;;;;4947962;28;89207;-33
2023/03/13 06:06:54;;;;;;;7.78;6.13;;;10.80;99.90;;;;;;4952531;28;89576;-31
2023/03/13 06:09:20;;;;;;;8.18;6.20;;;10.80;99.90;;;;;;4949025;28;89602;-31
2023/03/13 06:11:45;;;;;;;9.57;5.72;;;10.80;99.90;;;;;;4953035;28;89452;-31
2023/03/13 06:14:11;;;;;;;7.57;5.95;;;10.90;99.90;;;;;;4952460;28;89416;-30
2023/03/13 06:16:36;;;;;;;6.38;5.03;;;10.90;99.90;;;;;;4959269;28;90257;-33
2023/03/13 06:19:02;;;;;;;8.10;6.82;;;10.90;99.90;;;;;;4946374;28;89786;-32
2023/03/13 06:21:28;;;;;;;7.07;6.38;;;11.00;99.90;;;;;;4959419;28;89290;-33
2023/03/13 06:23:54;;;;;;;7.03;6.25;;;11.00;99.90;;;;;;4941654;28;89997;-30
2023/03/13 06:26:20;;;;;;;8.45;6.03;;;11.00;99.90;;;;;;4951983;28;91001;-30
2023/03/13 06:28:47;;;;;;;7.07;5.85;;;11.10;99.90;;;;;;4952199;28;90240;-33
2023/03/13 06:31:13;;;;;;;12.20;6.97;;;11.20;99.90;;;;;;4953988;28;89528;-31
2023/03/13 06:33:38;;;;;;;6.57;6.00;;;11.20;99.90;;;;;;4947839;28;89892;-30
2023/03/13 06:36:05;;;;;;;8.40;6.25;;;11.30;99.90;;;;;;4960851;28;89693;-31
2023/03/13 06:38:31;;;;;;;13.57;6.93;;;11.30;99.90;;;;;;4952918;28;90003;-33
2023/03/13 06:40:56;;;;;;;5.95;5.35;;;11.40;99.90;;;;;;4954433;28;88589;-32
2023/03/13 06:43:22;;;;;;;10.68;7.03;;;11.40;99.90;;;;;;4957049;28;90303;-31
2023/03/13 06:45:48;;;;;;;13.02;7.18;;;11.50;99.90;;;;;;4948343;28;90028;-30
2023/03/13 06:48:14;;;;;;;11.43;6.28;;;11.50;99.90;;;;;;4940414;28;89493;-32
2023/03/13 06:50:40;;;;;;;20.83;7.05;;;11.50;99.90;;;;;;4939534;28;88606;-33
2023/03/13 06:53:06;;;;;;;7.57;5.80;;;11.70;99.90;;;;;;4941333;28;89858;-30
2023/03/13 06:55:32;;;;;;;11.48;6.85;;;11.70;99.90;;;;;;4941124;28;89671;-32
2023/03/13 06:57:57;;;;;;;9.13;6.32;;;11.60;99.90;;;;;;4940069;28;89684;-33
2023/03/13 07:00:23;;;;;;;7.55;5.65;;;11.70;99.90;;;;;;4941599;28;88523;-33
2023/03/13 07:02:50;;;;;;;10.85;6.63;;;11.60;99.90;;;;;;4939857;28;90714;-29
2023/03/13 07:05:15;;;;;;;9.52;4.97;;;11.80;99.90;;;;;;4951388;28;90396;-32
2023/03/13 07:07:42;;;;;;;7.32;5.60;;;11.80;99.90;;;;;;4941571;28;89704;-32
2023/03/13 07:10:09;;;;;;;10.00;5.85;;;11.90;99.90;;;;;;4940360;28;89979;-29
2023/03/13 07:12:35;;;;;;;9.63;6.20;;;11.90;99.90;;;;;;4940722;28;89755;-33
2023/03/13 07:15:01;;;;;;;8.40;5.82;;;11.80;99.90;;;;;;4939272;28;89890;-32
2023/03/13 07:17:26;;;;;;;10.35;6.18;;;11.80;99.90;;;;;;4940471;28;90154;-31
2023/03/13 07:19:52;;;;;;;11.05;5.95;;;11.80;99.90;;;;;;4941476;28;87775;-29
2023/03/13 07:22:18;;;;;;;12.80;6.00;;;11.80;99.90;;;;;;4940155;28;90196;-30
2023/03/13 07:24:43;;;;;;;18.42;5.05;;;11.90;99.90;;;;;;4940972;28;90023;-31
2023/03/13 07:27:09;;;;;;;12.88;5.57;;;11.80;99.90;;;;;;4940038;28;89487;-31
2023/03/13 07:29:34;;;;;;;12.15;6.35;;;11.90;99.90;;;;;;4940912;28;89014;-30
2023/03/13 07:32:00;;;;;;;11.95;5.03;;;11.90;99.90;;;;;;4940714;28;89922;-31
2023/03/13 07:34:25;;;;;;;11.63;5.72;;;11.90;99.90;;;;;;4940662;28;90316;-31
2023/03/13 07:36:51;;;;;;;10.07;4.82;;;11.90;99.90;;;;;;4939884;28;88987;-31
2023/03/13 07:39:17;;;;;;;5.90;5.20;;;12.00;99.90;;;;;;4940159;28;89677;-33
2023/03/13 07:41:42;;;;;;;7.72;5.40;;;12.00;99.90;;;;;;4946583;28;89064;-28
2023/03/13 07:44:08;;;;;;;8.57;4.13;;;12.10;99.90;;;;;;4946186;28;89796;-32
2023/03/13 07:46:33;;;;;;;11.38;4.75;;;12.10;99.90;;;;;;4939967;28;89557;-33
2023/03/13 07:48:59;;;;;;;8.10;4.65;;;12.10;99.90;;;;;;4951546;28;89376;-30
2023/03/13 07:51:26;;;;;;;6.75;5.13;;;12.10;99.90;;;;;;4939555;28;90375;-32
2023/03/13 07:53:52;;;;;;;10.68;4.70;;;12.20;99.90;;;;;;4953396;28;90200;-33
2023/03/13 07:56:20;;;;;;;11.07;4.93;;;12.30;99.90;;;;;;4940903;28;90112;-31
2023/03/13 07:58:46;;;;;;;6.65;4.43;;;12.30;99.90;;;;;;4939969;28;88254;-30
2023/03/13 08:01:16;;;;;;;5.43;3.97;;;12.40;99.90;;;;;;4940291;28;90259;-31
2023/03/13 08:03:43;;;;;;;7.55;4.57;;;12.40;99.90;;;;;;4938926;28;90308;-32
2023/03/13 08:06:11;;;;;;;6.05;4.45;;;12.40;99.90;;;;;;4940027;28;90059;-31
2023/03/13 08:08:37;;;;;;;6.47;4.03;;;12.40;99.90;;;;;;4940542;28;89148;-31
2023/03/13 08:11:06;;;;;;;8.25;4.22;;;12.30;99.90;;;;;;4939235;28;90105;-31
2023/03/13 08:13:32;;;;;;;8.45;4.47;;;12.30;99.90;;;;;;4939950;28;89682;-30
2023/03/13 08:16:10;;;;;;;6.75;4.40;;;12.20;99.90;;;;;;4940154;28;89478;-29
2023/03/13 08:18:38;;;;;;;13.75;4.85;;;12.20;99.90;;;;;;4953165;28;89060;-29
2023/03/13 08:21:06;;;;;;;8.70;3.83;;;12.10;99.90;;;;;;4939840;28;90369;-30
2023/03/13 08:23:32;;;;;;;3.53;3.22;;;12.10;99.90;;;;;;4943852;28;89228;-31
2023/03/13 08:26:18;;;;;;;6.80;3.85;;;12.00;99.90;;;;;;4947598;28;89320;-30
2023/03/13 08:28:45;;;;;;;9.75;3.67;;;12.00;99.90;;;;;;4946094;28;89093;-30
2023/03/13 08:31:14;;;;;;;4.95;4.45;;;11.90;99.90;;;;;;4945899;28;90417;-33
2023/03/13 08:33:41;;;;;;;6.25;4.25;;;11.90;99.90;;;;;;4951626;28;89936;-33
2023/03/13 08:36:16;;;;;;;5.05;4.13;;;11.90;99.90;;;;;;4939505;28;90353;-31
2023/03/13 08:38:43;;;;;;;7.50;3.10;;;12.10;99.90;;;;;;4939794;28;87906;-31
2023/03/13 08:41:09;;;;;;;4.03;3.10;;;12.10;99.90;;;;;;4939060;28;90358;-32
2023/03/13 08:43:35;;;;;;;3.80;3.45;;;12.20;99.90;;;;;;4947866;28;89596;-34
2023/03/13 08:46:01;;;;;;;3.78;3.35;;;12.20;99.90;;;;;;4943018;28;89808;-31
2023/03/13 08:48:26;;;;;;;4.00;3.28;;;12.30;99.90;;;;;;4947406;28;89267;-33
2023/03/13 08:51:04;;;;;;;8.90;2.85;;;12.30;99.90;;;;;;4944482;28;90745;-29
2023/03/13 08:53:30;;;;;;;3.95;2.67;;;12.30;99.90;;;;;;4949020;28;91148;-29
2023/03/13 08:55:55;;;;;;;5.15;2.83;;;12.40;99.90;;;;;;4938866;28;90103;-32
2023/03/13 08:58:21;;;;;;;7.00;3.45;;;12.50;99.90;;;;;;4940162;28;89593;-29
2023/03/13 09:00:47;;;;;;;5.28;3.30;;;12.60;99.90;;;;;;4938441;28;89863;-32
2023/03/13 09:03:12;;;;;;;4.50;3.22;;;12.60;99.90;;;;;;4939232;28;89925;-31
2023/03/13 09:05:38;;;;;;;5.35;2.90;;;12.60;99.90;;;;;;4938086;28;89316;-31
2023/03/13 09:08:03;;;;;;;6.65;2.67;;;12.70;99.90;;;;;;4939670;28;88924;-33
2023/03/13 09:10:31;;;;;;;3.00;2.80;;;13.00;99.90;;;;;;4939299;28;90325;-31
2023/03/13 09:12:57;;;;;;;4.10;2.53;;;13.10;99.90;;;;;;4938807;28;89916;-28
2023/03/13 09:15:22;;;;;;;3.60;2.85;;;13.20;99.90;;;;;;4939728;28;89349;-32
2023/03/13 09:17:48;;;;;;;3.50;2.10;;;13.30;99.90;;;;;;4938626;28;90535;-31
2023/03/13 09:20:14;;;;;;;4.15;2.80;;;13.30;99.90;;;;;;4939041;28;90109;-31
2023/03/13 09:22:39;;;;;;;5.05;3.10;;;13.40;99.90;;;;;;4939265;28;89096;-33
2023/03/13 09:25:05;;;;;;;5.10;3.40;;;13.40;99.90;;;;;;4938640;28;89605;-31
2023/03/13 09:27:31;;;;;;;3.90;3.08;;;13.40;99.90;;;;;;4938922;28;89009;-32
2023/03/13 09:29:56;;;;;;;5.15;2.72;;;13.40;99.90;;;;;;4951105;28;90299;-32
2023/03/13 09:32:22;;;;;;;6.40;3.15;;;13.40;99.90;;;;;;4939179;28;89376;-33
2023/03/13 09:34:48;;;;;;;2.88;2.63;;;13.30;99.90;;;;;;4942030;28;90040;-31
2023/03/13 09:37:13;;;;;;;7.78;2.67;;;13.30;99.90;;;;;;4948334;28;89131;-31
2023/03/13 09:39:39;;;;;;;4.85;2.72;;;13.20;99.90;;;;;;4942203;28;90194;-28
2023/03/13 09:42:23;;;;;;;3.65;2.72;;;13.30;99.90;;;;;;4941543;28;89985;-30
2023/03/13 09:44:58;;;;;;;7.07;2.72;;;13.40;99.90;;;;;;4942934;28;91028;-32
2023/03/13 09:47:47;;;;;;;3.97;2.13;;;13.40;99.90;;;;;;4942130;28;89170;-30
2023/03/13 09:50:15;;;;;;;3.47;2.78;;;13.40;99.90;;;;;;4941297;28;90712;-31
2023/03/13 09:52:42;;;;;;;3.28;2.25;;;13.30;99.90;;;;;;4953234;28;89688;-31
2023/03/13 09:55:23;;;;;;;3.60;2.60;;;13.30;99.90;;;;;;4952452;28;89282;-29
2023/03/13 09:58:20;;;;;;;3.30;2.13;;;13.30;99.90;;;;;;4942311;28;89780;-32
2023/03/13 10:00:59;;;;;;;3.13;2.55;;;13.30;99.90;;;;;;4942654;28;90790;-30
2023/03/13 10:03:27;;;;;;;6.78;2.60;;;13.40;99.90;;;;;;4941529;28;89267;-31
2023/03/13 10:05:57;;;;;;;;;;;13.40;99.90;;;;;;4941881;28;89541;-28
2023/03/13 10:08:25;;;;;;;4.85;2.13;;;13.50;99.90;;;;;;4945021;28;89915;-29
2023/03/13 10:11:00;;;;;;;;;;;13.80;99.90;;;;;;4954765;28;90775;-29
2023/03/13 10:13:48;;;;;;;6.50;3.65;;;14.10;99.90;;;;;;4941805;28;90543;-32
2023/03/13 10:16:25;;;;;;;5.35;3.35;;;14.30;99.90;;;;;;4941202;28;90174;-32
2023/03/13 10:18:55;;;;;;;6.78;2.65;;;14.40;99.90;;;;;;4948106;28;89018;-29
2023/03/13 10:21:23;;;;;;;4.60;3.05;;;14.70;99.90;;;;;;4941677;28;90159;-31
2023/03/13 10:24:04;;;;;;;4.13;2.63;;;15.00;99.90;;;;;;4947814;28;89856;-32
2023/03/13 10:26:34;;;;;;;5.47;2.72;;;15.00;99.90;;;;;;4941678;28;89237;-31
2023/03/13 10:29:15;;;;;;;5.60;2.58;;;14.70;99.90;;;;;;4940980;28;88983;-28
2023/03/13 10:31:44;;;;;;;5.47;2.45;;;14.60;99.90;;;;;;4953852;28;91552;-30
2023/03/13 10:34:13;;;;;;;11.55;2.50;;;14.40;99.90;;;;;;4945342;28;91119;-28
2023/03/13 10:36:44;;;;;;;5.13;2.83;;;14.30;99.90;;;;;;4940793;28;89692;-30
2023/03/13 10:39:21;;;;;;;6.25;3.38;;;14.30;99.90;;;;;;4941380;28;89228;-30
2023/03/13 10:41:48;;;;;;;6.07;2.75;;;14.20;99.90;;;;;;4940370;28;91375;-30
2023/03/13 10:44:22;;;;;;;9.40;2.97;;;14.20;99.90;;;;;;4953638;28;89829;-33
2023/03/13 10:46:49;;;;;;;12.38;2.97;;;14.20;99.90;;;;;;4950014;28;90670;-30
2023/03/13 10:49:18;;;;;;;7.68;2.70;;;14.10;99.90;;;;;;4944566;28;88419;-30
2023/03/13 10:51:50;;;;;;;5.88;3.20;;;14.10;99.90;;;;;;4940120;28;90944;-30
2023/03/13 10:54:25;;;;;;;6.95;3.42;;;14.10;99.90;;;;;;4941297;28;89932;-31
2023/03/13 10:57:06;;;;;;;4.63;3.20;;;14.10;99.90;;;;;;4941076;28;89835;-30
2023/03/13 10:59:31;;;;;;;5.97;2.70;;;14.20;99.90;;;;;;4944373;28;89767;-31
2023/03/13 11:01:59;;;;;;;7.85;3.38;;;14.20;99.90;;;;;;4941017;28;90148;-30
2023/03/13 11:04:36;;;;;;;7.63;2.90;;;14.20;99.90;;;;;;4941351;28;88990;-30
2023/03/13 11:07:29;;;;;;;6.95;3.22;;;14.20;99.90;;;;;;4940362;28;90227;-33
2023/03/13 11:10:14;;;;;;;5.07;2.53;;;14.30;99.90;;;;;;4941381;28;89606;-29
2023/03/13 11:12:45;;;;;;;9.10;2.92;;;14.30;99.90;;;;;;4944678;28;89237;-36
2023/03/13 11:15:17;;;;;;;4.13;2.80;;;14.40;99.90;;;;;;4940956;28;89656;-28
2023/03/13 11:17:51;;;;;;;7.53;3.08;;;14.40;99.90;;;;;;4941021;28;89915;-32
2023/03/13 11:20:22;;;;;;;5.22;2.95;;;14.50;99.90;;;;;;4941075;28;89463;-29
2023/03/13 11:23:23;;;;;;;3.17;2.30;;;14.50;99.90;;;;;;4940988;28;90727;-30
2023/03/13 11:26:18;;;;;;;4.40;2.88;;;14.60;99.90;;;;;;4936293;28;90823;-31
2023/03/13 11:29:04;;;;;;;2.67;2.08;;;14.60;99.90;;;;;;4930892;28;90628;-32
2023/03/13 11:31:40;;;;;;;4.25;2.90;;;14.60;99.90;;;;;;4956894;28;89187;-32
2023/03/13 11:34:26;;;;;;;3.03;2.78;;;14.70;99.90;;;;;;4940465;28;91872;-33
2023/03/13 11:37:10;;;;;;;10.82;2.50;;;14.90;99.90;;;;;;4939865;28;91601;-32
2023/03/13 11:39:59;;;;;;;6.28;2.35;;;15.00;99.90;;;;;;4939579;28;89480;-32
2023/03/13 11:42:48;;;;;;;2.25;1.88;;;15.10;99.90;;;;;;4948676;28;89125;-31
2023/03/13 11:45:43;;;;;;;5.25;2.25;;;15.20;99.90;;;;;;4948735;28;90221;-32
2023/03/13 11:48:34;;;;;;;3.88;2.40;;;15.40;99.90;;;;;;4960283;22;89215;31
2023/03/13 11:51:27;;;;;;;4.13;1.80;;;15.30;99.90;;;;;;4898481;28;90596;-29
2023/03/13 11:54:33;;;;;;;8.57;2.17;;;15.40;99.90;;;;;;4901053;28;88982;-30
2023/03/13 11:57:11;;;;;;;3.45;1.80;;;15.50;99.90;;;;;;4897678;28;90451;-31
2023/03/13 12:00:01;;;;;;;3.22;1.65;;;15.70;99.90;;;;;;4901493;28;89844;-32
2023/03/13 12:02:39;;;;;;;3.83;2.55;;;15.60;99.90;;;;;;4900640;28;89707;-31
2023/03/13 12:05:13;;;;;;;4.50;1.77;;;15.50;99.90;;;;;;4890673;28;88482;-29
2023/03/13 12:07:48;;;;;;;4.72;2.42;;;15.40;99.90;;;;;;4883979;28;90447;-31
2023/03/13 12:10:24;;;;;;;3.03;2.30;;;15.40;99.90;;;;;;4899720;28;89161;-32
2023/03/13 12:13:00;;;;;;;2.00;1.60;;;15.50;99.90;;;;;;4882749;28;88569;-32
2023/03/13 12:15:39;;;;;;;3.40;2.08;;;15.60;99.90;;;;;;4901025;28;88093;-30
2023/03/13 12:18:21;;;;;;;2.17;1.98;;;15.50;99.90;;;;;;4900530;28;90274;-32
2023/03/13 12:21:05;;;;;;;2.75;2.00;;;15.50;99.90;;;;;;4900613;28;90506;-28
2023/03/13 12:24:15;;;;;;;3.50;1.63;;;15.40;99.90;;;;;;4895590;28;90667;-31
2023/03/13 12:26:41;;;;;;;5.97;2.25;;;15.40;99.90;;;;;;4900592;28;90055;-29
2023/03/13 12:29:12;;;;;;;3.92;2.22;;;15.40;99.90;;;;;;4900914;28;90249;-33
2023/03/13 12:31:56;;;;;;;6.95;2.63;;;15.50;99.90;;;;;;4900098;28;89736;-30
2023/03/13 12:34:43;;;;;;;5.35;1.90;;;15.40;99.90;;;;;;4901228;28;89792;-31
2023/03/13 12:37:27;;;;;;;3.83;2.50;;;15.50;99.90;;;;;;4891947;28;89011;-33
2023/03/13 12:40:00;;;;;;;2.95;2.28;;;15.50;99.90;;;;;;4900706;28;88835;-31
2023/03/13 12:42:53;;;;;;;6.63;2.30;;;15.40;99.90;;;;;;4901494;28;89839;-33
2023/03/13 12:45:23;;;;;;;4.75;1.90;;;15.40;99.90;;;;;;4891130;28;89732;-32
2023/03/13 12:48:22;;;;;;;4.95;1.80;;;15.70;99.90;;;;;;4900286;28;89200;-29
2023/03/13 12:51:04;;;;;;;5.82;2.13;;;15.90;99.90;;;;;;4880812;28;89297;-29
2023/03/13 12:53:35;;;;;;;2.58;1.92;;;15.90;99.90;;;;;;4881839;28;90024;-32
2023/03/13 12:56:25;;;;;;;4.53;2.42;;;16.00;99.90;;;;;;4881247;28;89160;-31
2023/03/13 12:59:15;;;;;;;7.07;1.92;;;16.00;99.90;;;;;;4881707;28;88396;-32
2023/03/13 13:01:46;;;;;;;4.70;2.03;;;16.10;99.90;;;;;;4881287;28;90303;-33